CST,Max TemperatureF,Mean TemperatureF,Min TemperatureF,Max Dew PointF,MeanDew PointF,Min DewpointF,Max Humidity, Mean Humidity, Min Humidity, Max Sea Level PressureIn, Mean Sea Level PressureIn, Min Sea Level PressureIn, Max VisibilityMiles, Mean VisibilityMiles, Min VisibilityMiles, Max Wind SpeedMPH, Mean Wind SpeedMPH, Max Gust SpeedMPH,PrecipitationIn, CloudCover, Events, WindDirDegrees
2014-2-1,23,16,8,16,12,3,85,75,65,30.37,30.10,29.86,10,10,10,21,9,26,0.00,6,,347
2014-2-2,32,15,-2,14,5,-6,84,67,45,30.44,30.35,30.27,10,10,10,10,7,,0.00,0,,236
2014-2-3,33,20,6,20,13,2,80,65,55,30.25,30.13,30.00,10,10,10,18,6,30,0.00,6,,124
2014-2-4,25,15,5,20,11,-1,89,81,75,30.53,30.17,30.03,10,3,0,29,16,39,0.05,8,Fog-Snow,29
2014-2-5,8,2,-4,-1,-5,-11,80,70,53,30.80,30.64,30.41,10,9,3,24,15,31,T,5,Snow,346
2014-2-6,8,1,-6,-1,-5,-12,76,69,63,30.75,30.61,30.43,10,10,10,8,3,,0.00,8,,175
2014-2-7,16,10,4,11,4,-2,81,77,73,30.40,30.24,30.01,10,8,6,10,7,,0.00,8,,181
2014-2-8,32,24,15,19,15,12,89,79,61,30.25,30.08,29.95,10,7,5,15,7,20,0.00,5,,80
2014-2-9,21,16,11,15,10,6,84,78,68,30.50,30.32,30.15,10,6,1,16,11,,0.07,8,Snow,41
2014-2-10,15,11,6,7,6,3,84,77,71,30.50,30.41,30.30,10,8,2,9,6,,0.02,7,Snow,113
2014-2-11,31,19,7,22,15,6,84,76,69,30.46,30.26,30.10,10,10,9,16,8,,0.00,4,,195
2014-2-12,37,31,25,26,24,21,79,71,59,30.22,30.08,29.89,10,10,10,20,13,18,0.00,1,,276
2014-2-13,55,42,29,34,29,22,79,59,40,29.93,29.83,29.68,10,10,10,14,10,24,T,1,Rain,257
2014-2-14,53,42,31,32,28,23,78,57,32,30.06,29.95,29.72,10,10,10,21,16,31,0.00,2,,325
2014-2-15,60,47,33,33,28,24,85,56,33,30.11,29.96,29.80,10,10,10,23,10,31,0.00,2,,307
2014-2-16,59,41,23,34,28,20,88,62,35,30.12,29.93,29.74,10,10,10,23,8,33,0.00,0,,184
2014-2-17,63,50,37,35,21,9,76,37,13,30.10,29.97,29.78,10,10,10,34,18,45,0.00,0,,280
2014-2-18,70,52,33,22,18,13,52,32,11,30.05,29.84,29.72,10,10,10,32,13,44,0.00,0,,287
2014-2-19,58,43,28,27,23,19,75,51,22,30.01,29.78,29.48,10,10,10,21,6,29,0.00,0,,159
2014-2-20,45,36,26,32,27,17,92,76,35,29.99,29.75,29.47,10,6,1,33,21,46,0.11,4,Rain-Snow,331
2014-2-21,54,40,25,22,19,14,78,51,25,29.96,29.91,29.87,10,10,10,20,10,26,0.00,0,,281
2014-2-22,52,37,22,25,22,18,81,58,32,30.12,29.98,29.90,10,10,10,18,8,22,0.00,0,,29
2014-2-23,30,27,23,24,19,14,85,75,63,30.38,30.27,30.12,10,10,10,20,13,,0.00,8,,63
2014-2-24,45,34,22,21,15,10,75,58,40,30.42,30.25,30.04,10,10,10,22,11,31,0.00,4,,129
2014-2-25,22,16,9,12,7,2,84,69,50,30.61,30.47,30.36,10,8,1,17,12,24,0.03,5,Snow,360
2014-2-26,40,18,-5,23,7,-9,88,70,36,30.57,30.30,30.11,10,10,8,18,8,26,0.00,0,,273
2014-2-27,46,28,10,18,14,6,84,58,28,30.11,29.94,29.72,10,10,10,20,9,25,0.00,0,,127
2014-2-28,49,34,19,24,19,13,82,63,36,30.13,29.86,29.62,10,10,10,23,9,30,0.00,3,,39